sensor_id;sensor_type;location;lat;lon;timestamp;P1;durP1;ratioP1;P2;durP2;ratioP2
211;SDS011;16228;48.800;9.002;2023-02-03T00:01:48;1.80;;;1.40;;
211;SDS011;16228;48.800;9.002;2023-02-03T00:04:15;2.17;;;1.53;;
211;SDS011;16228;48.800;9.002;2023-02-03T00:06:42;2.97;;;1.60;;
211;SDS011;16228;48.800;9.002;2023-02-03T00:09:09;2.67;;;1.60;;
211;SDS011;16228;48.800;9.002;2023-02-03T00:11:36;1.93;;;1.63;;
211;SDS011;16228;48.800;9.002;2023-02-03T00:14:03;1.60;;;1.50;;
211;SDS011;16228;48.800;9.002;2023-02-03T00:16:33;1.77;;;1.50;;
211;SDS011;16228;48.800;9.002;2023-02-03T00:19:00;4.20;;;1.50;;
211;SDS011;16228;48.800;9.002;2023-02-03T00:21:28;1.30;;;1.20;;
211;SDS011;16228;48.800;9.002;2023-02-03T00:23:55;2.70;;;2.50;;
211;SDS011;16228;48.800;9.002;2023-02-03T00:26:21;2.80;;;2.20;;
211;SDS011;16228;48.800;9.002;2023-02-03T00:28:50;1.70;;;1.60;;
211;SDS011;16228;48.800;9.002;2023-02-03T00:31:17;1.00;;;1.00;;
211;SDS011;16228;48.800;9.002;2023-02-03T00:33:51;1.20;;;1.10;;
211;SDS011;16228;48.800;9.002;2023-02-03T00:36:19;1.23;;;1.07;;
211;SDS011;16228;48.800;9.002;2023-02-03T00:38:46;2.23;;;1.40;;
211;SDS011;16228;48.800;9.002;2023-02-03T00:41:14;1.57;;;1.47;;
211;SDS011;16228;48.800;9.002;2023-02-03T00:43:41;1.20;;;1.00;;
211;SDS011;16228;48.800;9.002;2023-02-03T00:46:08;2.00;;;1.87;;
211;SDS011;16228;48.800;9.002;2023-02-03T00:48:35;1.90;;;1.40;;
211;SDS011;16228;48.800;9.002;2023-02-03T00:51:03;2.70;;;1.30;;
211;SDS011;16228;48.800;9.002;2023-02-03T00:53:30;2.87;;;1.50;;
211;SDS011;16228;48.800;9.002;2023-02-03T00:55:58;1.30;;;1.10;;
211;SDS011;16228;48.800;9.002;2023-02-03T00:58:25;2.77;;;1.30;;
211;SDS011;16228;48.800;9.002;2023-02-03T01:00:53;1.77;;;1.27;;
211;SDS011;16228;48.800;9.002;2023-02-03T01:03:20;0.83;;;0.80;;
211;SDS011;16228;48.800;9.002;2023-02-03T01:05:48;1.00;;;0.90;;
211;SDS011;16228;48.800;9.002;2023-02-03T01:08:16;4.83;;;1.10;;
211;SDS011;16228;48.800;9.002;2023-02-03T01:10:43;1.30;;;1.20;;
211;SDS011;16228;48.800;9.002;2023-02-03T01:13:10;2.63;;;1.30;;
211;SDS011;16228;48.800;9.002;2023-02-03T01:15:41;2.40;;;1.30;;
211;SDS011;16228;48.800;9.002;2023-02-03T01:18:12;3.23;;;2.47;;
211;SDS011;16228;48.800;9.002;2023-02-03T01:20:39;2.37;;;1.70;;
211;SDS011;16228;48.800;9.002;2023-02-03T01:23:06;2.13;;;1.80;;
211;SDS011;16228;48.800;9.002;2023-02-03T01:25:35;1.77;;;1.63;;
211;SDS011;16228;48.800;9.002;2023-02-03T01:28:02;2.10;;;1.90;;
211;SDS011;16228;48.800;9.002;2023-02-03T01:30:30;2.20;;;1.97;;
211;SDS011;16228;48.800;9.002;2023-02-03T01:32:57;3.30;;;2.17;;
211;SDS011;16228;48.800;9.002;2023-02-03T01:35:24;4.73;;;4.00;;
211;SDS011;16228;48.800;9.002;2023-02-03T01:37:51;2.17;;;2.07;;
211;SDS011;16228;48.800;9.002;2023-02-03T01:40:18;3.17;;;2.13;;
211;SDS011;16228;48.800;9.002;2023-02-03T01:42:46;3.20;;;2.73;;
211;SDS011;16228;48.800;9.002;2023-02-03T01:45:13;3.13;;;2.20;;
211;SDS011;16228;48.800;9.002;2023-02-03T01:47:41;6.83;;;6.43;;
211;SDS011;16228;48.800;9.002;2023-02-03T01:50:12;4.30;;;2.27;;
211;SDS011;16228;48.800;9.002;2023-02-03T01:52:41;3.70;;;2.10;;
211;SDS011;16228;48.800;9.002;2023-02-03T01:55:11;2.10;;;1.83;;
211;SDS011;16228;48.800;9.002;2023-02-03T01:57:41;3.90;;;3.27;;
211;SDS011;16228;48.800;9.002;2023-02-03T02:00:13;2.30;;;2.10;;
211;SDS011;16228;48.800;9.002;2023-02-03T02:02:40;2.80;;;1.77;;
211;SDS011;16228;48.800;9.002;2023-02-03T02:05:10;3.70;;;2.00;;
211;SDS011;16228;48.800;9.002;2023-02-03T02:07:41;1.70;;;1.60;;
211;SDS011;16228;48.800;9.002;2023-02-03T02:10:10;2.10;;;1.50;;
211;SDS011;16228;48.800;9.002;2023-02-03T02:12:37;1.73;;;1.50;;
211;SDS011;16228;48.800;9.002;2023-02-03T02:15:04;1.80;;;1.70;;
211;SDS011;16228;48.800;9.002;2023-02-03T02:17:38;2.67;;;2.47;;
211;SDS011;16228;48.800;9.002;2023-02-03T02:20:30;2.63;;;1.73;;
211;SDS011;16228;48.800;9.002;2023-02-03T02:26:28;2.30;;;2.10;;
211;SDS011;16228;48.800;9.002;2023-02-03T02:32:31;3.03;;;1.87;;
211;SDS011;16228;48.800;9.002;2023-02-03T02:35:14;3.30;;;1.80;;
211;SDS011;16228;48.800;9.002;2023-02-03T02:37:47;1.80;;;1.70;;
211;SDS011;16228;48.800;9.002;2023-02-03T02:40:19;1.97;;;1.80;;
211;SDS011;16228;48.800;9.002;2023-02-03T02:42:53;2.27;;;1.87;;
211;SDS011;16228;48.800;9.002;2023-02-03T02:45:28;4.97;;;2.03;;
211;SDS011;16228;48.800;9.002;2023-02-03T02:48:03;2.03;;;1.40;;
211;SDS011;16228;48.800;9.002;2023-02-03T02:50:37;3.97;;;3.67;;
211;SDS011;16228;48.800;9.002;2023-02-03T02:53:07;3.27;;;1.33;;
211;SDS011;16228;48.800;9.002;2023-02-03T02:55:35;1.57;;;1.40;;
211;SDS011;16228;48.800;9.002;2023-02-03T02:58:05;2.60;;;1.50;;
211;SDS011;16228;48.800;9.002;2023-02-03T03:00:36;1.50;;;1.40;;
211;SDS011;16228;48.800;9.002;2023-02-03T03:03:13;1.63;;;1.33;;
211;SDS011;16228;48.800;9.002;2023-02-03T03:05:42;1.57;;;1.47;;
211;SDS011;16228;48.800;9.002;2023-02-03T03:08:13;2.20;;;1.20;;
211;SDS011;16228;48.800;9.002;2023-02-03T03:10:41;1.37;;;1.30;;
211;SDS011;16228;48.800;9.002;2023-02-03T03:13:11;1.20;;;1.10;;
211;SDS011;16228;48.800;9.002;2023-02-03T03:15:40;1.40;;;1.30;;
211;SDS011;16228;48.800;9.002;2023-02-03T03:18:10;2.90;;;1.30;;
211;SDS011;16228;48.800;9.002;2023-02-03T03:20:43;1.43;;;1.27;;
211;SDS011;16228;48.800;9.002;2023-02-03T03:23:14;1.20;;;1.10;;
211;SDS011;16228;48.800;9.002;2023-02-03T03:25:52;2.40;;;1.20;;
211;SDS011;16228;48.800;9.002;2023-02-03T03:28:24;2.03;;;1.10;;
211;SDS011;16228;48.800;9.002;2023-02-03T03:31:03;2.40;;;1.00;;
211;SDS011;16228;48.800;9.002;2023-02-03T03:33:31;1.03;;;1.00;;
211;SDS011;16228;48.800;9.002;2023-02-03T03:36:00;2.67;;;0.83;;
211;SDS011;16228;48.800;9.002;2023-02-03T03:38:35;0.60;;;0.60;;
211;SDS011;16228;48.800;9.002;2023-02-03T03:41:07;1.57;;;0.80;;
211;SDS011;16228;48.800;9.002;2023-02-03T03:43:38;2.33;;;0.90;;
211;SDS011;16228;48.800;9.002;2023-02-03T03:46:11;2.33;;;0.70;;
211;SDS011;16228;48.800;9.002;2023-02-03T03:48:42;1.10;;;0.70;;
211;SDS011;16228;48.800;9.002;2023-02-03T03:51:17;0.83;;;0.50;;
211;SDS011;16228;48.800;9.002;2023-02-03T03:53:49;2.33;;;1.00;;
211;SDS011;16228;48.800;9.002;2023-02-03T03:56:20;1.27;;;0.60;;
211;SDS011;16228;48.800;9.002;2023-02-03T03:58:50;1.37;;;0.40;;
211;SDS011;16228;48.800;9.002;2023-02-03T04:01:19;0.90;;;0.60;;
211;SDS011;16228;48.800;9.002;2023-02-03T04:03:51;0.90;;;0.60;;
211;SDS011;16228;48.800;9.002;2023-02-03T04:06:21;0.70;;;0.70;;
211;SDS011;16228;48.800;9.002;2023-02-03T04:08:49;0.60;;;0.60;;
211;SDS011;16228;48.800;9.002;2023-02-03T04:11:16;1.33;;;0.70;;
211;SDS011;16228;48.800;9.002;2023-02-03T04:13:56;0.50;;;0.50;;
211;SDS011;16228;48.800;9.002;2023-02-03T04:16:23;1.13;;;0.73;;
211;SDS011;16228;48.800;9.002;2023-02-03T04:18:52;0.93;;;0.93;;
211;SDS011;16228;48.800;9.002;2023-02-03T04:21:19;1.50;;;0.87;;
211;SDS011;16228;48.800;9.002;2023-02-03T04:23:46;1.70;;;0.87;;
211;SDS011;16228;48.800;9.002;2023-02-03T04:26:13;0.90;;;0.90;;
211;SDS011;16228;48.800;9.002;2023-02-03T04:28:40;2.13;;;1.37;;
211;SDS011;16228;48.800;9.002;2023-02-03T04:31:08;1.50;;;1.50;;
211;SDS011;16228;48.800;9.002;2023-02-03T04:33:35;1.47;;;1.47;;
211;SDS011;16228;48.800;9.002;2023-02-03T04:36:04;1.70;;;1.60;;
211;SDS011;16228;48.800;9.002;2023-02-03T04:38:31;1.93;;;1.83;;
211;SDS011;16228;48.800;9.002;2023-02-03T04:40:58;1.60;;;1.60;;
211;SDS011;16228;48.800;9.002;2023-02-03T04:43:25;2.33;;;2.03;;
211;SDS011;16228;48.800;9.002;2023-02-03T04:45:52;2.00;;;1.93;;
211;SDS011;16228;48.800;9.002;2023-02-03T04:48:19;2.77;;;2.57;;
211;SDS011;16228;48.800;9.002;2023-02-03T04:50:46;3.03;;;2.93;;
211;SDS011;16228;48.800;9.002;2023-02-03T04:53:14;2.73;;;2.63;;
211;SDS011;16228;48.800;9.002;2023-02-03T04:55:44;2.33;;;2.23;;
211;SDS011;16228;48.800;9.002;2023-02-03T04:58:12;3.33;;;3.13;;
211;SDS011;16228;48.800;9.002;2023-02-03T05:00:39;2.37;;;2.23;;
211;SDS011;16228;48.800;9.002;2023-02-03T05:03:06;2.50;;;2.40;;
211;SDS011;16228;48.800;9.002;2023-02-03T05:05:32;2.90;;;2.80;;
211;SDS011;16228;48.800;9.002;2023-02-03T05:07:59;3.67;;;3.47;;
211;SDS011;16228;48.800;9.002;2023-02-03T05:10:28;3.20;;;2.97;;
211;SDS011;16228;48.800;9.002;2023-02-03T05:12:55;4.20;;;3.90;;
211;SDS011;16228;48.800;9.002;2023-02-03T05:15:22;3.10;;;3.00;;
211;SDS011;16228;48.800;9.002;2023-02-03T05:17:50;3.40;;;3.30;;
211;SDS011;16228;48.800;9.002;2023-02-03T05:20:17;2.37;;;2.27;;
211;SDS011;16228;48.800;9.002;2023-02-03T05:22:44;2.47;;;2.37;;
211;SDS011;16228;48.800;9.002;2023-02-03T05:25:11;2.57;;;2.37;;
211;SDS011;16228;48.800;9.002;2023-02-03T05:27:40;3.00;;;2.80;;
211;SDS011;16228;48.800;9.002;2023-02-03T05:30:08;2.30;;;2.20;;
211;SDS011;16228;48.800;9.002;2023-02-03T05:32:36;2.90;;;2.80;;
211;SDS011;16228;48.800;9.002;2023-02-03T05:35:03;2.13;;;2.13;;
211;SDS011;16228;48.800;9.002;2023-02-03T05:37:30;2.60;;;2.40;;
211;SDS011;16228;48.800;9.002;2023-02-03T05:39:57;2.47;;;2.27;;
211;SDS011;16228;48.800;9.002;2023-02-03T05:42:46;2.07;;;1.77;;
211;SDS011;16228;48.800;9.002;2023-02-03T05:45:12;2.60;;;2.37;;
211;SDS011;16228;48.800;9.002;2023-02-03T05:47:39;4.00;;;3.70;;
211;SDS011;16228;48.800;9.002;2023-02-03T05:50:06;3.33;;;3.13;;
211;SDS011;16228;48.800;9.002;2023-02-03T05:52:34;3.83;;;3.53;;
211;SDS011;16228;48.800;9.002;2023-02-03T05:55:01;3.77;;;3.07;;
211;SDS011;16228;48.800;9.002;2023-02-03T05:57:28;2.97;;;2.57;;
211;SDS011;16228;48.800;9.002;2023-02-03T05:59:57;2.40;;;2.20;;
211;SDS011;16228;48.800;9.002;2023-02-03T06:02:24;3.07;;;2.30;;
211;SDS011;16228;48.800;9.002;2023-02-03T06:04:51;2.37;;;2.27;;
211;SDS011;16228;48.800;9.002;2023-02-03T06:07:18;2.80;;;2.60;;
211;SDS011;16228;48.800;9.002;2023-02-03T06:09:44;2.33;;;2.10;;
211;SDS011;16228;48.800;9.002;2023-02-03T06:12:11;2.80;;;2.60;;
211;SDS011;16228;48.800;9.002;2023-02-03T06:14:40;2.37;;;2.27;;
211;SDS011;16228;48.800;9.002;2023-02-03T06:17:08;2.30;;;2.07;;
211;SDS011;16228;48.800;9.002;2023-02-03T06:19:35;2.90;;;2.70;;
211;SDS011;16228;48.800;9.002;2023-02-03T06:22:02;2.43;;;2.33;;
211;SDS011;16228;48.800;9.002;2023-02-03T06:24:29;2.33;;;2.23;;
211;SDS011;16228;48.800;9.002;2023-02-03T06:26:56;2.67;;;2.47;;
211;SDS011;16228;48.800;9.002;2023-02-03T06:29:23;2.27;;;2.17;;
211;SDS011;16228;48.800;9.002;2023-02-03T06:31:50;2.13;;;2.03;;
211;SDS011;16228;48.800;9.002;2023-02-03T06:34:18;3.67;;;3.37;;
211;SDS011;16228;48.800;9.002;2023-02-03T06:36:45;2.23;;;1.90;;
211;SDS011;16228;48.800;9.002;2023-02-03T06:39:13;1.70;;;1.60;;
211;SDS011;16228;48.800;9.002;2023-02-03T06:41:40;1.80;;;1.70;;
211;SDS011;16228;48.800;9.002;2023-02-03T06:44:07;2.00;;;1.50;;
211;SDS011;16228;48.800;9.002;2023-02-03T06:46:34;1.90;;;1.80;;
211;SDS011;16228;48.800;9.002;2023-02-03T06:49:01;2.30;;;1.60;;
211;SDS011;16228;48.800;9.002;2023-02-03T06:51:29;2.87;;;2.67;;
211;SDS011;16228;48.800;9.002;2023-02-03T06:53:56;2.13;;;2.00;;
211;SDS011;16228;48.800;9.002;2023-02-03T06:56:23;3.17;;;2.30;;
211;SDS011;16228;48.800;9.002;2023-02-03T06:58:50;2.63;;;2.43;;
211;SDS011;16228;48.800;9.002;2023-02-03T07:01:17;2.40;;;2.13;;
211;SDS011;16228;48.800;9.002;2023-02-03T07:03:44;2.40;;;2.20;;
211;SDS011;16228;48.800;9.002;2023-02-03T07:06:12;3.03;;;2.13;;
211;SDS011;16228;48.800;9.002;2023-02-03T07:08:40;1.93;;;1.50;;
211;SDS011;16228;48.800;9.002;2023-02-03T07:11:07;3.90;;;1.70;;
211;SDS011;16228;48.800;9.002;2023-02-03T07:13:34;2.17;;;2.07;;
211;SDS011;16228;48.800;9.002;2023-02-03T07:16:01;3.07;;;2.60;;
211;SDS011;16228;48.800;9.002;2023-02-03T07:18:29;4.17;;;1.90;;
211;SDS011;16228;48.800;9.002;2023-02-03T07:20:56;3.30;;;2.10;;
211;SDS011;16228;48.800;9.002;2023-02-03T07:23:22;2.20;;;2.00;;
211;SDS011;16228;48.800;9.002;2023-02-03T07:25:51;3.80;;;2.17;;
211;SDS011;16228;48.800;9.002;2023-02-03T07:28:18;3.13;;;2.00;;
211;SDS011;16228;48.800;9.002;2023-02-03T07:30:46;2.67;;;2.47;;
211;SDS011;16228;48.800;9.002;2023-02-03T07:33:14;2.50;;;2.23;;
211;SDS011;16228;48.800;9.002;2023-02-03T07:35:41;2.20;;;2.10;;
211;SDS011;16228;48.800;9.002;2023-02-03T07:38:08;2.80;;;2.60;;
211;SDS011;16228;48.800;9.002;2023-02-03T07:40:36;2.30;;;2.10;;
211;SDS011;16228;48.800;9.002;2023-02-03T07:43:04;2.70;;;2.07;;
211;SDS011;16228;48.800;9.002;2023-02-03T07:45:31;2.17;;;2.07;;
211;SDS011;16228;48.800;9.002;2023-02-03T07:47:58;2.30;;;2.20;;
211;SDS011;16228;48.800;9.002;2023-02-03T07:50:26;1.77;;;1.63;;
211;SDS011;16228;48.800;9.002;2023-02-03T07:52:53;3.60;;;2.90;;
211;SDS011;16228;48.800;9.002;2023-02-03T07:55:20;3.03;;;2.33;;
211;SDS011;16228;48.800;9.002;2023-02-03T07:57:47;3.80;;;1.73;;
211;SDS011;16228;48.800;9.002;2023-02-03T08:00:16;2.57;;;1.97;;
211;SDS011;16228;48.800;9.002;2023-02-03T08:02:44;2.67;;;1.70;;
211;SDS011;16228;48.800;9.002;2023-02-03T08:05:11;2.50;;;1.80;;
211;SDS011;16228;48.800;9.002;2023-02-03T08:07:39;6.43;;;2.57;;
211;SDS011;16228;48.800;9.002;2023-02-03T08:10:06;4.83;;;2.17;;
211;SDS011;16228;48.800;9.002;2023-02-03T08:12:35;2.30;;;2.20;;
211;SDS011;16228;48.800;9.002;2023-02-03T08:15:03;2.33;;;2.13;;
211;SDS011;16228;48.800;9.002;2023-02-03T08:17:32;3.50;;;2.30;;
211;SDS011;16228;48.800;9.002;2023-02-03T08:19:59;4.10;;;2.10;;
211;SDS011;16228;48.800;9.002;2023-02-03T08:22:26;3.37;;;1.83;;
211;SDS011;16228;48.800;9.002;2023-02-03T08:24:53;2.37;;;2.17;;
211;SDS011;16228;48.800;9.002;2023-02-03T08:27:20;2.20;;;2.00;;
211;SDS011;16228;48.800;9.002;2023-02-03T08:29:48;3.57;;;1.87;;
211;SDS011;16228;48.800;9.002;2023-02-03T08:32:16;4.47;;;2.43;;
211;SDS011;16228;48.800;9.002;2023-02-03T08:34:46;2.70;;;2.27;;
211;SDS011;16228;48.800;9.002;2023-02-03T08:37:14;2.10;;;1.90;;
211;SDS011;16228;48.800;9.002;2023-02-03T08:39:43;3.83;;;2.20;;
211;SDS011;16228;48.800;9.002;2023-02-03T08:42:10;4.30;;;1.60;;
211;SDS011;16228;48.800;9.002;2023-02-03T08:44:37;1.70;;;1.60;;
211;SDS011;16228;48.800;9.002;2023-02-03T08:47:04;1.70;;;1.50;;
211;SDS011;16228;48.800;9.002;2023-02-03T08:49:32;3.13;;;1.60;;
211;SDS011;16228;48.800;9.002;2023-02-03T08:52:01;1.70;;;1.60;;
211;SDS011;16228;48.800;9.002;2023-02-03T08:54:28;1.93;;;1.60;;
211;SDS011;16228;48.800;9.002;2023-02-03T08:56:55;2.00;;;1.67;;
211;SDS011;16228;48.800;9.002;2023-02-03T08:59:22;2.63;;;1.70;;
211;SDS011;16228;48.800;9.002;2023-02-03T09:01:49;2.77;;;1.50;;
211;SDS011;16228;48.800;9.002;2023-02-03T09:04:17;2.53;;;1.63;;
211;SDS011;16228;48.800;9.002;2023-02-03T09:06:48;2.63;;;1.50;;
211;SDS011;16228;48.800;9.002;2023-02-03T09:09:17;1.83;;;1.50;;
211;SDS011;16228;48.800;9.002;2023-02-03T09:11:44;1.53;;;1.13;;
211;SDS011;16228;48.800;9.002;2023-02-03T09:14:10;1.97;;;1.40;;
211;SDS011;16228;48.800;9.002;2023-02-03T09:16:38;1.43;;;1.00;;
211;SDS011;16228;48.800;9.002;2023-02-03T09:19:05;2.40;;;1.10;;
211;SDS011;16228;48.800;9.002;2023-02-03T09:21:32;2.30;;;0.90;;
211;SDS011;16228;48.800;9.002;2023-02-03T09:24:00;1.37;;;0.57;;
211;SDS011;16228;48.800;9.002;2023-02-03T09:26:29;0.53;;;0.50;;
211;SDS011;16228;48.800;9.002;2023-02-03T09:28:56;1.40;;;0.70;;
211;SDS011;16228;48.800;9.002;2023-02-03T09:31:23;2.20;;;0.73;;
211;SDS011;16228;48.800;9.002;2023-02-03T09:33:50;1.17;;;0.70;;
211;SDS011;16228;48.800;9.002;2023-02-03T09:36:17;0.77;;;0.60;;
211;SDS011;16228;48.800;9.002;2023-02-03T09:38:44;4.20;;;0.70;;
211;SDS011;16228;48.800;9.002;2023-02-03T09:41:14;0.77;;;0.50;;
211;SDS011;16228;48.800;9.002;2023-02-03T09:43:52;1.00;;;0.60;;
211;SDS011;16228;48.800;9.002;2023-02-03T09:46:26;1.77;;;1.03;;
211;SDS011;16228;48.800;9.002;2023-02-03T09:48:57;1.00;;;0.90;;
211;SDS011;16228;48.800;9.002;2023-02-03T09:51:26;0.60;;;0.60;;
211;SDS011;16228;48.800;9.002;2023-02-03T09:53:58;0.60;;;0.60;;
211;SDS011;16228;48.800;9.002;2023-02-03T09:56:30;0.50;;;0.50;;
211;SDS011;16228;48.800;9.002;2023-02-03T09:59:00;1.80;;;0.50;;
211;SDS011;16228;48.800;9.002;2023-02-03T10:01:29;0.70;;;0.70;;
211;SDS011;16228;48.800;9.002;2023-02-03T10:04:16;0.97;;;0.50;;
211;SDS011;16228;48.800;9.002;2023-02-03T10:06:52;0.80;;;0.70;;
211;SDS011;16228;48.800;9.002;2023-02-03T10:09:31;2.27;;;0.60;;
211;SDS011;16228;48.800;9.002;2023-02-03T10:12:15;1.10;;;0.80;;
211;SDS011;16228;48.800;9.002;2023-02-03T10:14:55;0.97;;;0.60;;
211;SDS011;16228;48.800;9.002;2023-02-03T10:17:42;1.03;;;0.60;;
211;SDS011;16228;48.800;9.002;2023-02-03T10:20:15;0.63;;;0.63;;
211;SDS011;16228;48.800;9.002;2023-02-03T10:22:46;0.80;;;0.80;;
211;SDS011;16228;48.800;9.002;2023-02-03T10:25:18;0.57;;;0.53;;
211;SDS011;16228;48.800;9.002;2023-02-03T10:27:49;0.93;;;0.67;;
211;SDS011;16228;48.800;9.002;2023-02-03T10:30:20;0.70;;;0.70;;
211;SDS011;16228;48.800;9.002;2023-02-03T10:32:48;0.70;;;0.70;;
211;SDS011;16228;48.800;9.002;2023-02-03T10:35:19;2.07;;;0.67;;
211;SDS011;16228;48.800;9.002;2023-02-03T10:37:48;0.60;;;0.60;;
211;SDS011;16228;48.800;9.002;2023-02-03T10:40:20;1.07;;;0.53;;
211;SDS011;16228;48.800;9.002;2023-02-03T10:42:51;1.37;;;0.90;;
211;SDS011;16228;48.800;9.002;2023-02-03T10:45:37;1.37;;;0.80;;
211;SDS011;16228;48.800;9.002;2023-02-03T10:48:05;0.67;;;0.47;;
211;SDS011;16228;48.800;9.002;2023-02-03T10:50:36;0.50;;;0.50;;
211;SDS011;16228;48.800;9.002;2023-02-03T10:53:19;1.80;;;1.70;;
211;SDS011;16228;48.800;9.002;2023-02-03T10:55:49;1.40;;;0.60;;
211;SDS011;16228;48.800;9.002;2023-02-03T10:58:25;1.07;;;0.50;;
211;SDS011;16228;48.800;9.002;2023-02-03T11:00:56;0.50;;;0.50;;
211;SDS011;16228;48.800;9.002;2023-02-03T11:03:29;0.50;;;0.50;;
211;SDS011;16228;48.800;9.002;2023-02-03T11:06:04;0.73;;;0.63;;
211;SDS011;16228;48.800;9.002;2023-02-03T11:08:33;1.07;;;0.97;;
211;SDS011;16228;48.800;9.002;2023-02-03T11:11:04;3.73;;;3.63;;
211;SDS011;16228;48.800;9.002;2023-02-03T11:13:33;0.90;;;0.80;;
211;SDS011;16228;48.800;9.002;2023-02-03T11:16:02;1.07;;;1.07;;
211;SDS011;16228;48.800;9.002;2023-02-03T11:18:33;0.53;;;0.53;;
211;SDS011;16228;48.800;9.002;2023-02-03T11:21:19;0.87;;;0.80;;
211;SDS011;16228;48.800;9.002;2023-02-03T11:23:52;0.63;;;0.60;;
211;SDS011;16228;48.800;9.002;2023-02-03T11:26:23;1.43;;;0.50;;
211;SDS011;16228;48.800;9.002;2023-02-03T11:28:53;0.33;;;0.33;;
211;SDS011;16228;48.800;9.002;2023-02-03T11:31:25;2.27;;;1.17;;
211;SDS011;16228;48.800;9.002;2023-02-03T11:33:55;0.70;;;0.70;;
211;SDS011;16228;48.800;9.002;2023-02-03T11:36:24;0.80;;;0.80;;
211;SDS011;16228;48.800;9.002;2023-02-03T11:38:59;0.47;;;0.47;;
211;SDS011;16228;48.800;9.002;2023-02-03T11:41:43;0.80;;;0.80;;
211;SDS011;16228;48.800;9.002;2023-02-03T11:44:10;1.57;;;1.27;;
211;SDS011;16228;48.800;9.002;2023-02-03T11:46:43;3.43;;;1.17;;
211;SDS011;16228;48.800;9.002;2023-02-03T11:49:17;1.00;;;0.57;;
211;SDS011;16228;48.800;9.002;2023-02-03T11:52:11;1.43;;;0.60;;
211;SDS011;16228;48.800;9.002;2023-02-03T11:54:54;0.60;;;0.60;;
211;SDS011;16228;48.800;9.002;2023-02-03T11:57:35;0.70;;;0.70;;
211;SDS011;16228;48.800;9.002;2023-02-03T12:00:13;1.17;;;0.77;;
211;SDS011;16228;48.800;9.002;2023-02-03T12:02:58;0.87;;;0.60;;
211;SDS011;16228;48.800;9.002;2023-02-03T12:06:00;0.93;;;0.60;;
211;SDS011;16228;48.800;9.002;2023-02-03T12:08:44;1.60;;;0.70;;
211;SDS011;16228;48.800;9.002;2023-02-03T12:11:31;0.70;;;0.70;;
211;SDS011;16228;48.800;9.002;2023-02-03T12:14:14;1.13;;;1.13;;
211;SDS011;16228;48.800;9.002;2023-02-03T12:16:59;0.50;;;0.50;;
211;SDS011;16228;48.800;9.002;2023-02-03T12:19:45;0.90;;;0.90;;
211;SDS011;16228;48.800;9.002;2023-02-03T12:22:28;0.40;;;0.40;;
211;SDS011;16228;48.800;9.002;2023-02-03T12:25:06;1.00;;;0.70;;
211;SDS011;16228;48.800;9.002;2023-02-03T12:27:47;0.83;;;0.83;;
211;SDS011;16228;48.800;9.002;2023-02-03T12:30:23;0.57;;;0.53;;
211;SDS011;16228;48.800;9.002;2023-02-03T12:32:54;0.40;;;0.40;;
211;SDS011;16228;48.800;9.002;2023-02-03T12:35:26;1.00;;;1.00;;
211;SDS011;16228;48.800;9.002;2023-02-03T12:37:59;1.57;;;1.23;;
211;SDS011;16228;48.800;9.002;2023-02-03T12:40:33;1.53;;;0.60;;
211;SDS011;16228;48.800;9.002;2023-02-03T12:43:07;1.50;;;0.63;;
211;SDS011;16228;48.800;9.002;2023-02-03T12:45:48;1.10;;;1.10;;
211;SDS011;16228;48.800;9.002;2023-02-03T12:48:20;0.83;;;0.83;;
211;SDS011;16228;48.800;9.002;2023-02-03T12:50:52;1.83;;;1.10;;
211;SDS011;16228;48.800;9.002;2023-02-03T12:53:24;1.10;;;0.93;;
211;SDS011;16228;48.800;9.002;2023-02-03T12:55:57;0.60;;;0.60;;
211;SDS011;16228;48.800;9.002;2023-02-03T12:58:30;0.60;;;0.60;;
211;SDS011;16228;48.800;9.002;2023-02-03T13:01:02;1.20;;;0.90;;
211;SDS011;16228;48.800;9.002;2023-02-03T13:03:32;0.60;;;0.60;;
211;SDS011;16228;48.800;9.002;2023-02-03T13:06:09;1.13;;;0.93;;
211;SDS011;16228;48.800;9.002;2023-02-03T13:08:41;1.60;;;1.50;;
211;SDS011;16228;48.800;9.002;2023-02-03T13:11:18;0.70;;;0.70;;
211;SDS011;16228;48.800;9.002;2023-02-03T13:13:51;1.37;;;0.73;;
211;SDS011;16228;48.800;9.002;2023-02-03T13:16:22;1.20;;;1.10;;
211;SDS011;16228;48.800;9.002;2023-02-03T13:18:55;0.60;;;0.60;;
211;SDS011;16228;48.800;9.002;2023-02-03T13:21:27;1.03;;;0.87;;
211;SDS011;16228;48.800;9.002;2023-02-03T13:23:54;0.60;;;0.60;;
211;SDS011;16228;48.800;9.002;2023-02-03T13:26:36;0.77;;;0.77;;
211;SDS011;16228;48.800;9.002;2023-02-03T13:29:19;2.37;;;0.73;;
211;SDS011;16228;48.800;9.002;2023-02-03T13:32:01;1.07;;;0.70;;
211;SDS011;16228;48.800;9.002;2023-02-03T13:34:44;0.87;;;0.87;;
211;SDS011;16228;48.800;9.002;2023-02-03T13:37:36;0.70;;;0.70;;
211;SDS011;16228;48.800;9.002;2023-02-03T13:40:19;0.93;;;0.70;;
211;SDS011;16228;48.800;9.002;2023-02-03T13:42:57;1.20;;;0.93;;
211;SDS011;16228;48.800;9.002;2023-02-03T13:45:29;1.53;;;0.70;;
211;SDS011;16228;48.800;9.002;2023-02-03T13:47:59;1.47;;;0.83;;
211;SDS011;16228;48.800;9.002;2023-02-03T13:50:33;0.70;;;0.70;;
211;SDS011;16228;48.800;9.002;2023-02-03T13:53:04;1.80;;;1.00;;
211;SDS011;16228;48.800;9.002;2023-02-03T13:55:34;0.73;;;0.70;;
211;SDS011;16228;48.800;9.002;2023-02-03T13:58:04;0.60;;;0.60;;
211;SDS011;16228;48.800;9.002;2023-02-03T14:03:42;0.60;;;0.60;;
211;SDS011;16228;48.800;9.002;2023-02-03T14:09:40;0.70;;;0.70;;
211;SDS011;16228;48.800;9.002;2023-02-03T14:12:29;0.50;;;0.50;;
211;SDS011;16228;48.800;9.002;2023-02-03T14:17:55;0.60;;;0.60;;
211;SDS011;16228;48.800;9.002;2023-02-03T14:20:40;0.60;;;0.60;;
211;SDS011;16228;48.800;9.002;2023-02-03T14:23:23;0.57;;;0.57;;
211;SDS011;16228;48.800;9.002;2023-02-03T14:25:57;0.80;;;0.67;;
211;SDS011;16228;48.800;9.002;2023-02-03T14:28:28;1.40;;;1.40;;
211;SDS011;16228;48.800;9.002;2023-02-03T14:31:05;0.77;;;0.63;;
211;SDS011;16228;48.800;9.002;2023-02-03T14:33:49;1.50;;;0.70;;
211;SDS011;16228;48.800;9.002;2023-02-03T14:36:34;0.87;;;0.63;;
211;SDS011;16228;48.800;9.002;2023-02-03T14:42:08;0.90;;;0.90;;
211;SDS011;16228;48.800;9.002;2023-02-03T14:44:45;0.73;;;0.60;;
211;SDS011;16228;48.800;9.002;2023-02-03T14:47:32;0.73;;;0.73;;
211;SDS011;16228;48.800;9.002;2023-02-03T14:50:21;0.60;;;0.60;;
211;SDS011;16228;48.800;9.002;2023-02-03T14:53:03;0.90;;;0.90;;
211;SDS011;16228;48.800;9.002;2023-02-03T14:55:43;0.70;;;0.70;;
211;SDS011;16228;48.800;9.002;2023-02-03T14:58:21;0.57;;;0.57;;
211;SDS011;16228;48.800;9.002;2023-02-03T15:00:54;0.60;;;0.60;;
211;SDS011;16228;48.800;9.002;2023-02-03T15:03:25;0.90;;;0.60;;
211;SDS011;16228;48.800;9.002;2023-02-03T15:05:56;0.87;;;0.87;;
211;SDS011;16228;48.800;9.002;2023-02-03T15:08:33;0.40;;;0.40;;
211;SDS011;16228;48.800;9.002;2023-02-03T15:14:18;1.20;;;0.60;;
211;SDS011;16228;48.800;9.002;2023-02-03T15:16:49;0.50;;;0.50;;
211;SDS011;16228;48.800;9.002;2023-02-03T15:19:21;0.40;;;0.40;;
211;SDS011;16228;48.800;9.002;2023-02-03T15:21:49;0.40;;;0.40;;
211;SDS011;16228;48.800;9.002;2023-02-03T15:24:17;0.73;;;0.63;;
211;SDS011;16228;48.800;9.002;2023-02-03T15:26:49;0.60;;;0.60;;
211;SDS011;16228;48.800;9.002;2023-02-03T15:29:20;1.40;;;1.20;;
211;SDS011;16228;48.800;9.002;2023-02-03T15:31:49;0.60;;;0.60;;
211;SDS011;16228;48.800;9.002;2023-02-03T15:34:22;0.80;;;0.80;;
211;SDS011;16228;48.800;9.002;2023-02-03T15:36:53;0.50;;;0.50;;
211;SDS011;16228;48.800;9.002;2023-02-03T15:39:27;0.60;;;0.53;;
211;SDS011;16228;48.800;9.002;2023-02-03T15:42:11;0.63;;;0.63;;
211;SDS011;16228;48.800;9.002;2023-02-03T15:44:44;0.80;;;0.80;;
211;SDS011;16228;48.800;9.002;2023-02-03T15:47:17;0.73;;;0.63;;
211;SDS011;16228;48.800;9.002;2023-02-03T15:49:59;0.70;;;0.70;;
211;SDS011;16228;48.800;9.002;2023-02-03T15:52:34;0.53;;;0.53;;
211;SDS011;16228;48.800;9.002;2023-02-03T15:55:07;0.60;;;0.50;;
211;SDS011;16228;48.800;9.002;2023-02-03T15:57:41;0.67;;;0.50;;
211;SDS011;16228;48.800;9.002;2023-02-03T16:00:21;0.70;;;0.70;;
211;SDS011;16228;48.800;9.002;2023-02-03T16:02:54;0.90;;;0.90;;